LES26JM EDDF-LFPG
Flight info
| Callsign | LES26JM |
|---|---|
| Flight time | 0h 49m |
| Altitude | 24000 |
| Route | SOBRA2L/18 SOBRA Y180 DIK UN857 TOLVU/N0392F230 DCT RAPOR DCT VEDUS |
| Aircraft | A320/M-SDE3FGHIRWY/LB1 |
Departure
| Time | 2026-05-06 22:08 |
|---|---|
| Airport | Frankfurt Main Airport (EDDF) |
Arrival
| Time | 2026-05-06 22:58 |
|---|---|
| Airport | Charles de Gaulle International Airport (LFPG) |
| Time | Latitude | Longitude | Altitude | Speed | Heading |
|---|---|---|---|---|---|
| 2026-05-06 21:20 | 50.04638 | 8.56662 | 359 ft | 0 kts | 115° |
| 2026-05-06 21:54 | 50.04638 | 8.56661 | 328 ft | 1 kts | 115° |
| 2026-05-06 21:54 | 50.04641 | 8.56650 | 356 ft | 3 kts | 114° |
| 2026-05-06 21:54 | 50.04649 | 8.56621 | 357 ft | 3 kts | 114° |
| 2026-05-06 21:55 | 50.04658 | 8.56592 | 359 ft | 3 kts | 115° |
| 2026-05-06 21:55 | 50.04667 | 8.56565 | 356 ft | 3 kts | 124° |
| 2026-05-06 21:55 | 50.04679 | 8.56543 | 362 ft | 3 kts | 156° |
| 2026-05-06 21:55 | 50.04689 | 8.56539 | 364 ft | 1 kts | 205° |
| 2026-05-06 21:56 | 50.04685 | 8.56536 | 364 ft | 2 kts | 205° |
| 2026-05-06 21:56 | 50.04668 | 8.56523 | 359 ft | 3 kts | 205° |
| 2026-05-06 21:56 | 50.04649 | 8.56510 | 361 ft | 3 kts | 205° |
| 2026-05-06 21:56 | 50.04631 | 8.56496 | 357 ft | 3 kts | 205° |
| 2026-05-06 21:57 | 50.04612 | 8.56483 | 356 ft | 3 kts | 205° |
| 2026-05-06 21:57 | 50.04594 | 8.56470 | 363 ft | 3 kts | 205° |
| 2026-05-06 21:57 | 50.04580 | 8.56460 | 356 ft | 1 kts | 205° |
| 2026-05-06 22:00 | 50.04578 | 8.56459 | 356 ft | 2 kts | 205° |
| 2026-05-06 22:00 | 50.04535 | 8.56427 | 356 ft | 7 kts | 209° |
| 2026-05-06 22:01 | 50.04511 | 8.56369 | 358 ft | 6 kts | 249° |
| 2026-05-06 22:01 | 50.04501 | 8.56322 | 358 ft | 5 kts | 251° |
| 2026-05-06 22:01 | 50.04486 | 8.56250 | 356 ft | 7 kts | 253° |
| 2026-05-06 22:01 | 50.04468 | 8.56169 | 362 ft | 9 kts | 250° |
| 2026-05-06 22:02 | 50.04445 | 8.56079 | 360 ft | 9 kts | 246° |
| 2026-05-06 22:02 | 50.04397 | 8.56027 | 356 ft | 8 kts | 182° |
| 2026-05-06 22:02 | 50.04344 | 8.56055 | 362 ft | 8 kts | 158° |
| 2026-05-06 22:02 | 50.04291 | 8.56082 | 355 ft | 8 kts | 178° |
| 2026-05-06 22:03 | 50.04259 | 8.56022 | 360 ft | 7 kts | 250° |
| 2026-05-06 22:03 | 50.04240 | 8.55939 | 355 ft | 12 kts | 251° |
| 2026-05-06 22:03 | 50.04199 | 8.55763 | 353 ft | 19 kts | 250° |
| 2026-05-06 22:03 | 50.04149 | 8.55555 | 356 ft | 22 kts | 249° |
| 2026-05-06 22:04 | 50.04094 | 8.55329 | 361 ft | 23 kts | 248° |
| 2026-05-06 22:04 | 50.04036 | 8.55096 | 357 ft | 24 kts | 249° |
| 2026-05-06 22:04 | 50.03979 | 8.54851 | 359 ft | 25 kts | 250° |
| 2026-05-06 22:04 | 50.03920 | 8.54600 | 352 ft | 25 kts | 250° |
| 2026-05-06 22:05 | 50.03865 | 8.54380 | 352 ft | 16 kts | 241° |
| 2026-05-06 22:05 | 50.03799 | 8.54226 | 356 ft | 16 kts | 243° |
| 2026-05-06 22:05 | 50.03759 | 8.54055 | 349 ft | 18 kts | 251° |
| 2026-05-06 22:05 | 50.03712 | 8.53856 | 348 ft | 21 kts | 249° |
| 2026-05-06 22:06 | 50.03659 | 8.53633 | 350 ft | 22 kts | 250° |
| 2026-05-06 22:06 | 50.03602 | 8.53403 | 336 ft | 24 kts | 248° |
| 2026-05-06 22:06 | 50.03540 | 8.53156 | 337 ft | 25 kts | 249° |
| 2026-05-06 22:06 | 50.03484 | 8.52924 | 334 ft | 18 kts | 249° |
| 2026-05-06 22:07 | 50.03442 | 8.52758 | 333 ft | 14 kts | 248° |
| 2026-05-06 22:07 | 50.03411 | 8.52639 | 333 ft | 8 kts | 248° |
| 2026-05-06 22:07 | 50.03371 | 8.52591 | 335 ft | 8 kts | 180° |
| 2026-05-06 22:07 | 50.03276 | 8.52596 | 330 ft | 33 kts | 179° |
| 2026-05-06 22:08 | 50.02766 | 8.52597 | 333 ft | 108 kts | 179° |
| 2026-05-06 22:08 | 50.01811 | 8.52603 | 332 ft | 163 kts | 180° |
| 2026-05-06 22:08 | 50.00635 | 8.52606 | 852 ft | 172 kts | 183° |
| 2026-05-06 22:08 | 49.99422 | 8.52612 | 1649 ft | 175 kts | 182° |
| 2026-05-06 22:09 | 49.98191 | 8.52692 | 2396 ft | 179 kts | 180° |
| 2026-05-06 22:09 | 49.96946 | 8.52797 | 3099 ft | 179 kts | 179° |
| 2026-05-06 22:09 | 49.95699 | 8.52926 | 3806 ft | 180 kts | 179° |
| 2026-05-06 22:09 | 49.94441 | 8.53084 | 4450 ft | 183 kts | 178° |
| 2026-05-06 22:10 | 49.93176 | 8.53237 | 5002 ft | 189 kts | 180° |
| 2026-05-06 22:10 | 49.91851 | 8.53369 | 5483 ft | 192 kts | 180° |
| 2026-05-06 22:10 | 49.90469 | 8.53483 | 5908 ft | 207 kts | 181° |
| 2026-05-06 22:10 | 49.88949 | 8.53573 | 6205 ft | 232 kts | 182° |
| 2026-05-06 22:11 | 49.87279 | 8.53558 | 6766 ft | 247 kts | 188° |
| 2026-05-06 22:11 | 49.85534 | 8.53054 | 7283 ft | 265 kts | 201° |
| 2026-05-06 22:11 | 49.83768 | 8.52010 | 7999 ft | 275 kts | 205° |
| 2026-05-06 22:11 | 49.82032 | 8.50813 | 8858 ft | 277 kts | 206° |
| 2026-05-06 22:12 | 49.80254 | 8.49626 | 9807 ft | 280 kts | 205° |
| 2026-05-06 22:12 | 49.78447 | 8.48426 | 10499 ft | 291 kts | 212° |
| 2026-05-06 22:12 | 49.76936 | 8.46244 | 10863 ft | 309 kts | 237° |
| 2026-05-06 22:12 | 49.76155 | 8.43077 | 11307 ft | 325 kts | 262° |
| 2026-05-06 22:13 | 49.76253 | 8.39549 | 11969 ft | 334 kts | 282° |
| 2026-05-06 22:13 | 49.76929 | 8.36077 | 12778 ft | 338 kts | 288° |
| 2026-05-06 22:13 | 49.77643 | 8.32592 | 13571 ft | 343 kts | 284° |
| 2026-05-06 22:13 | 49.78210 | 8.28985 | 14200 ft | 349 kts | 282° |
| 2026-05-06 22:14 | 49.78719 | 8.25286 | 14882 ft | 353 kts | 281° |
| 2026-05-06 22:14 | 49.79223 | 8.21583 | 15571 ft | 357 kts | 282° |
| 2026-05-06 22:14 | 49.79763 | 8.17799 | 16226 ft | 362 kts | 282° |
| 2026-05-06 22:14 | 49.80332 | 8.14011 | 16906 ft | 366 kts | 283° |
| 2026-05-06 22:15 | 49.80934 | 8.10160 | 17587 ft | 370 kts | 284° |
| 2026-05-06 22:15 | 49.81557 | 8.06275 | 18221 ft | 374 kts | 284° |
| 2026-05-06 22:15 | 49.82192 | 8.02342 | 18792 ft | 378 kts | 284° |
| 2026-05-06 22:15 | 49.82831 | 7.98363 | 19347 ft | 382 kts | 284° |
| 2026-05-06 22:16 | 49.83462 | 7.94399 | 19896 ft | 386 kts | 283° |
| 2026-05-06 22:16 | 49.84094 | 7.90395 | 20436 ft | 390 kts | 283° |
| 2026-05-06 22:16 | 49.84743 | 7.86241 | 20977 ft | 393 kts | 283° |
| 2026-05-06 22:16 | 49.85379 | 7.82142 | 21495 ft | 397 kts | 283° |
| 2026-05-06 22:17 | 49.86027 | 7.77959 | 22047 ft | 401 kts | 283° |
| 2026-05-06 22:17 | 49.86684 | 7.73739 | 22574 ft | 404 kts | 282° |
| 2026-05-06 22:17 | 49.87352 | 7.69483 | 23157 ft | 406 kts | 284° |
| 2026-05-06 22:17 | 49.88019 | 7.65218 | 23686 ft | 407 kts | 284° |
| 2026-05-06 22:18 | 49.88678 | 7.60961 | 23844 ft | 406 kts | 284° |
| 2026-05-06 22:18 | 49.89331 | 7.56740 | 23886 ft | 403 kts | 283° |
| 2026-05-06 22:18 | 49.89982 | 7.52514 | 23886 ft | 402 kts | 284° |
| 2026-05-06 22:18 | 49.90630 | 7.48295 | 23887 ft | 402 kts | 283° |
| 2026-05-06 22:19 | 49.91272 | 7.44078 | 23893 ft | 402 kts | 284° |
| 2026-05-06 22:19 | 49.91916 | 7.39852 | 23891 ft | 402 kts | 283° |
| 2026-05-06 22:19 | 49.92559 | 7.35638 | 23919 ft | 402 kts | 283° |
| 2026-05-06 22:19 | 49.93202 | 7.31416 | 23924 ft | 402 kts | 284° |
| 2026-05-06 22:20 | 49.93836 | 7.27245 | 23922 ft | 401 kts | 283° |
| 2026-05-06 22:20 | 49.94469 | 7.23052 | 23922 ft | 399 kts | 283° |
| 2026-05-06 22:20 | 49.95097 | 7.18856 | 23925 ft | 398 kts | 283° |
| 2026-05-06 22:20 | 49.95723 | 7.14658 | 23924 ft | 398 kts | 283° |
| 2026-05-06 22:21 | 49.96349 | 7.10478 | 23920 ft | 398 kts | 283° |
| 2026-05-06 22:21 | 49.96978 | 7.06273 | 23923 ft | 398 kts | 283° |
| 2026-05-06 22:21 | 49.97602 | 7.02091 | 23918 ft | 397 kts | 282° |
| 2026-05-06 22:21 | 49.98223 | 6.97904 | 23914 ft | 397 kts | 282° |
| 2026-05-06 22:22 | 49.98830 | 6.93802 | 23910 ft | 396 kts | 282° |
| 2026-05-06 22:22 | 49.99225 | 6.89571 | 23904 ft | 396 kts | 272° |
| 2026-05-06 22:22 | 49.99187 | 6.85299 | 23903 ft | 395 kts | 267° |
| 2026-05-06 22:22 | 49.99056 | 6.81023 | 23902 ft | 396 kts | 267° |
| 2026-05-06 22:23 | 49.98927 | 6.76745 | 23902 ft | 396 kts | 267° |
| 2026-05-06 22:23 | 49.98799 | 6.72493 | 23896 ft | 396 kts | 267° |
| 2026-05-06 22:23 | 49.98671 | 6.68214 | 23895 ft | 397 kts | 267° |
| 2026-05-06 22:23 | 49.98543 | 6.63965 | 23896 ft | 397 kts | 267° |
| 2026-05-06 22:24 | 49.98396 | 6.59647 | 23895 ft | 397 kts | 264° |
| 2026-05-06 22:24 | 49.97914 | 6.55432 | 23893 ft | 396 kts | 254° |
| 2026-05-06 22:24 | 49.96975 | 6.51407 | 23889 ft | 396 kts | 246° |
| 2026-05-06 22:24 | 49.95868 | 6.47486 | 23890 ft | 396 kts | 246° |
| 2026-05-06 22:25 | 49.94766 | 6.43557 | 23897 ft | 396 kts | 246° |
| 2026-05-06 22:25 | 49.93666 | 6.39636 | 23896 ft | 396 kts | 246° |
| 2026-05-06 22:25 | 49.92566 | 6.35713 | 23915 ft | 396 kts | 246° |
| 2026-05-06 22:25 | 49.91463 | 6.31794 | 23922 ft | 396 kts | 246° |
| 2026-05-06 22:26 | 49.90374 | 6.27929 | 23927 ft | 395 kts | 246° |
| 2026-05-06 22:26 | 49.89250 | 6.24043 | 23928 ft | 395 kts | 245° |
| 2026-05-06 22:26 | 49.88121 | 6.20163 | 23927 ft | 394 kts | 246° |
| 2026-05-06 22:26 | 49.87017 | 6.16270 | 23935 ft | 394 kts | 246° |
| 2026-05-06 22:27 | 49.85808 | 6.12452 | 23933 ft | 394 kts | 239° |
| 2026-05-06 22:27 | 49.84274 | 6.08923 | 23932 ft | 394 kts | 235° |
| 2026-05-06 22:27 | 49.82688 | 6.05457 | 23930 ft | 394 kts | 235° |
| 2026-05-06 22:27 | 49.81097 | 6.01992 | 23920 ft | 394 kts | 234° |
| 2026-05-06 22:28 | 49.79508 | 5.98537 | 23917 ft | 394 kts | 234° |
| 2026-05-06 22:28 | 49.77913 | 5.95075 | 23916 ft | 395 kts | 234° |
| 2026-05-06 22:28 | 49.76316 | 5.91615 | 23915 ft | 395 kts | 234° |
| 2026-05-06 22:28 | 49.74759 | 5.88114 | 23923 ft | 395 kts | 239° |
| 2026-05-06 22:29 | 49.73549 | 5.84303 | 23929 ft | 394 kts | 249° |
| 2026-05-06 22:29 | 49.72626 | 5.80314 | 23933 ft | 394 kts | 250° |
| 2026-05-06 22:29 | 49.71707 | 5.76325 | 23942 ft | 394 kts | 250° |
| 2026-05-06 22:29 | 49.70792 | 5.72397 | 23948 ft | 394 kts | 250° |
| 2026-05-06 22:30 | 49.69862 | 5.68418 | 23949 ft | 394 kts | 250° |
| 2026-05-06 22:30 | 49.68935 | 5.64444 | 23954 ft | 393 kts | 250° |
| 2026-05-06 22:30 | 49.68006 | 5.60460 | 23951 ft | 393 kts | 250° |
| 2026-05-06 22:30 | 49.67078 | 5.56486 | 23960 ft | 393 kts | 250° |
| 2026-05-06 22:31 | 49.66145 | 5.52507 | 23954 ft | 393 kts | 250° |
| 2026-05-06 22:31 | 49.65212 | 5.48541 | 23954 ft | 393 kts | 250° |
| 2026-05-06 22:31 | 49.64275 | 5.44576 | 23953 ft | 393 kts | 250° |
| 2026-05-06 22:31 | 49.63334 | 5.40610 | 23951 ft | 393 kts | 250° |
| 2026-05-06 22:32 | 49.62398 | 5.36650 | 23963 ft | 393 kts | 250° |
| 2026-05-06 22:32 | 49.61512 | 5.32728 | 23955 ft | 392 kts | 251° |
| 2026-05-06 22:32 | 49.60655 | 5.28736 | 23955 ft | 392 kts | 252° |
| 2026-05-06 22:32 | 49.59822 | 5.24728 | 23956 ft | 392 kts | 253° |
| 2026-05-06 22:33 | 49.59276 | 5.20622 | 23956 ft | 391 kts | 264° |
| 2026-05-06 22:33 | 49.59185 | 5.16437 | 23954 ft | 391 kts | 271° |
| 2026-05-06 22:33 | 49.59237 | 5.12236 | 23953 ft | 391 kts | 270° |
| 2026-05-06 22:33 | 49.59275 | 5.08031 | 23952 ft | 391 kts | 270° |
| 2026-05-06 22:34 | 49.59305 | 5.03844 | 23952 ft | 391 kts | 270° |
| 2026-05-06 22:34 | 49.59331 | 4.99647 | 23956 ft | 391 kts | 270° |
| 2026-05-06 22:34 | 49.59359 | 4.95453 | 23951 ft | 391 kts | 270° |
| 2026-05-06 22:34 | 49.59390 | 4.91252 | 23950 ft | 391 kts | 270° |
| 2026-05-06 22:35 | 49.59418 | 4.87109 | 23948 ft | 391 kts | 270° |
| 2026-05-06 22:35 | 49.59447 | 4.82923 | 23951 ft | 391 kts | 270° |
| 2026-05-06 22:35 | 49.59472 | 4.78730 | 23950 ft | 391 kts | 270° |
| 2026-05-06 22:35 | 49.59493 | 4.74519 | 23952 ft | 391 kts | 270° |
| 2026-05-06 22:36 | 49.59514 | 4.70319 | 23950 ft | 392 kts | 270° |
| 2026-05-06 22:36 | 49.59535 | 4.66116 | 23956 ft | 392 kts | 270° |
| 2026-05-06 22:36 | 49.59556 | 4.61909 | 23959 ft | 392 kts | 270° |
| 2026-05-06 22:36 | 49.59572 | 4.57776 | 23957 ft | 392 kts | 269° |
| 2026-05-06 22:37 | 49.59588 | 4.53589 | 23823 ft | 387 kts | 270° |
| 2026-05-06 22:37 | 49.59606 | 4.49478 | 23474 ft | 379 kts | 269° |
| 2026-05-06 22:37 | 49.59620 | 4.45437 | 22984 ft | 373 kts | 270° |
| 2026-05-06 22:37 | 49.59632 | 4.41461 | 22533 ft | 368 kts | 270° |
| 2026-05-06 22:38 | 49.59643 | 4.37552 | 22083 ft | 363 kts | 270° |
| 2026-05-06 22:38 | 49.59652 | 4.33680 | 21638 ft | 358 kts | 270° |
| 2026-05-06 22:38 | 49.59657 | 4.31233 | 21355 ft | 356 kts | 270° |
| 2026-05-06 22:38 | 49.59665 | 4.26207 | 20754 ft | 352 kts | 270° |
| 2026-05-06 22:39 | 49.59668 | 4.22439 | 20306 ft | 349 kts | 270° |
| 2026-05-06 22:39 | 49.59667 | 4.19961 | 19991 ft | 348 kts | 270° |
| 2026-05-06 22:39 | 49.59667 | 4.16237 | 19537 ft | 346 kts | 270° |
| 2026-05-06 22:39 | 49.59668 | 4.12531 | 19072 ft | 345 kts | 270° |
| 2026-05-06 22:40 | 49.59480 | 4.08858 | 18607 ft | 344 kts | 259° |
| 2026-05-06 22:40 | 49.58812 | 4.05305 | 18094 ft | 345 kts | 248° |
| 2026-05-06 22:40 | 49.57700 | 4.02037 | 17592 ft | 344 kts | 238° |
| 2026-05-06 22:40 | 49.56390 | 3.98945 | 17111 ft | 342 kts | 238° |
| 2026-05-06 22:41 | 49.53826 | 3.92865 | 16186 ft | 339 kts | 238° |
| 2026-05-06 22:41 | 49.52544 | 3.89817 | 15716 ft | 339 kts | 238° |
| 2026-05-06 22:41 | 49.51262 | 3.86777 | 15256 ft | 338 kts | 238° |
| 2026-05-06 22:42 | 49.49977 | 3.83746 | 14788 ft | 338 kts | 238° |
| 2026-05-06 22:42 | 49.48694 | 3.80713 | 14318 ft | 338 kts | 237° |
| 2026-05-06 22:42 | 49.47559 | 3.77570 | 13852 ft | 337 kts | 248° |
| 2026-05-06 22:42 | 49.46850 | 3.74154 | 13357 ft | 335 kts | 257° |
| 2026-05-06 22:43 | 49.46285 | 3.70735 | 13206 ft | 324 kts | 256° |
| 2026-05-06 22:43 | 49.45730 | 3.67432 | 13063 ft | 313 kts | 256° |
| 2026-05-06 22:43 | 49.45190 | 3.64240 | 12859 ft | 305 kts | 256° |
| 2026-05-06 22:43 | 49.44665 | 3.61148 | 12583 ft | 301 kts | 256° |
| 2026-05-06 22:44 | 49.44139 | 3.58047 | 12321 ft | 298 kts | 256° |
| 2026-05-06 22:44 | 49.43615 | 3.54971 | 12060 ft | 298 kts | 256° |
| 2026-05-06 22:44 | 49.43091 | 3.51884 | 11803 ft | 297 kts | 256° |
| 2026-05-06 22:44 | 49.42525 | 3.48840 | 11549 ft | 296 kts | 249° |
| 2026-05-06 22:45 | 49.41548 | 3.46068 | 11294 ft | 295 kts | 234° |
| 2026-05-06 22:45 | 49.40143 | 3.43790 | 11046 ft | 294 kts | 219° |
| 2026-05-06 22:45 | 49.38448 | 3.42110 | 10798 ft | 293 kts | 210° |
| 2026-05-06 22:45 | 49.36678 | 3.40582 | 10547 ft | 291 kts | 210° |
| 2026-05-06 22:46 | 49.34910 | 3.39059 | 10311 ft | 290 kts | 210° |
| 2026-05-06 22:46 | 49.33154 | 3.37546 | 10066 ft | 288 kts | 210° |
| 2026-05-06 22:46 | 49.31416 | 3.36043 | 9879 ft | 287 kts | 210° |
| 2026-05-06 22:46 | 49.29679 | 3.34540 | 9747 ft | 286 kts | 210° |
| 2026-05-06 22:47 | 49.27947 | 3.33041 | 9610 ft | 286 kts | 210° |
| 2026-05-06 22:47 | 49.26310 | 3.31312 | 9473 ft | 285 kts | 217° |
| 2026-05-06 22:47 | 49.24728 | 3.29498 | 9336 ft | 284 kts | 218° |
| 2026-05-06 22:47 | 49.23142 | 3.27691 | 9206 ft | 283 kts | 217° |
| 2026-05-06 22:48 | 49.21558 | 3.25897 | 9069 ft | 283 kts | 217° |
| 2026-05-06 22:48 | 49.19979 | 3.24109 | 8941 ft | 282 kts | 218° |
| 2026-05-06 22:48 | 49.18421 | 3.22345 | 8746 ft | 282 kts | 217° |
| 2026-05-06 22:48 | 49.16857 | 3.20572 | 8473 ft | 276 kts | 218° |
| 2026-05-06 22:49 | 49.15332 | 3.18838 | 8198 ft | 270 kts | 218° |
| 2026-05-06 22:49 | 49.13864 | 3.17175 | 7916 ft | 254 kts | 218° |
| 2026-05-06 22:49 | 49.12501 | 3.15636 | 7657 ft | 240 kts | 218° |
| 2026-05-06 22:49 | 49.11320 | 3.13955 | 7425 ft | 227 kts | 232° |
| 2026-05-06 22:50 | 49.10450 | 3.11960 | 7182 ft | 224 kts | 239° |
| 2026-05-06 22:50 | 49.09631 | 3.09956 | 6950 ft | 221 kts | 239° |
| 2026-05-06 22:50 | 49.08839 | 3.08037 | 6725 ft | 218 kts | 239° |
| 2026-05-06 22:50 | 49.08032 | 3.06092 | 6504 ft | 216 kts | 239° |
| 2026-05-06 22:51 | 49.07230 | 3.04155 | 6275 ft | 215 kts | 239° |
| 2026-05-06 22:51 | 49.06431 | 3.02226 | 6062 ft | 215 kts | 239° |
| 2026-05-06 22:51 | 49.05632 | 3.00300 | 5819 ft | 215 kts | 239° |
| 2026-05-06 22:51 | 49.04944 | 2.98299 | 5586 ft | 213 kts | 256° |
| 2026-05-06 22:52 | 49.04717 | 2.96103 | 5382 ft | 208 kts | 266° |
| 2026-05-06 22:52 | 49.04610 | 2.93952 | 5192 ft | 198 kts | 267° |
| 2026-05-06 22:52 | 49.04512 | 2.91911 | 5053 ft | 191 kts | 266° |
| 2026-05-06 22:52 | 49.04413 | 2.89918 | 4830 ft | 190 kts | 267° |
| 2026-05-06 22:53 | 49.04312 | 2.87910 | 4577 ft | 189 kts | 267° |
| 2026-05-06 22:53 | 49.04212 | 2.85915 | 4314 ft | 187 kts | 267° |
| 2026-05-06 22:53 | 49.04113 | 2.83961 | 4055 ft | 182 kts | 268° |
| 2026-05-06 22:53 | 49.04016 | 2.82060 | 3817 ft | 177 kts | 267° |
| 2026-05-06 22:54 | 49.03921 | 2.80206 | 3572 ft | 174 kts | 267° |
| 2026-05-06 22:54 | 49.03828 | 2.78385 | 3342 ft | 169 kts | 267° |
| 2026-05-06 22:54 | 49.03738 | 2.76628 | 3124 ft | 168 kts | 268° |
| 2026-05-06 22:54 | 49.03648 | 2.74888 | 2904 ft | 158 kts | 267° |
| 2026-05-06 22:55 | 49.03565 | 2.73278 | 2683 ft | 149 kts | 268° |
| 2026-05-06 22:55 | 49.03484 | 2.71715 | 2477 ft | 146 kts | 268° |
| 2026-05-06 22:55 | 49.03398 | 2.70177 | 2270 ft | 145 kts | 268° |
| 2026-05-06 22:55 | 49.03311 | 2.68654 | 2076 ft | 144 kts | 268° |
| 2026-05-06 22:56 | 49.03240 | 2.67134 | 1897 ft | 144 kts | 269° |
| 2026-05-06 22:56 | 49.03163 | 2.65617 | 1688 ft | 143 kts | 269° |
| 2026-05-06 22:56 | 49.03087 | 2.64111 | 1469 ft | 142 kts | 269° |
| 2026-05-06 22:56 | 49.03007 | 2.62607 | 1251 ft | 141 kts | 269° |
| 2026-05-06 22:57 | 49.02927 | 2.61129 | 1056 ft | 139 kts | 268° |
| 2026-05-06 22:57 | 49.02851 | 2.59668 | 878 ft | 137 kts | 266° |
| 2026-05-06 22:57 | 49.02786 | 2.58207 | 673 ft | 137 kts | 267° |
| 2026-05-06 22:57 | 49.02701 | 2.56776 | 479 ft | 133 kts | 267° |
| 2026-05-06 22:58 | 49.02633 | 2.55397 | 358 ft | 124 kts | 266° |
| 2026-05-06 22:58 | 49.02572 | 2.54329 | 353 ft | 77 kts | 265° |
| 2026-05-06 22:58 | 49.02544 | 2.53783 | 357 ft | 31 kts | 265° |
| 2026-05-06 22:58 | 49.02528 | 2.53548 | 356 ft | 19 kts | 261° |
| 2026-05-06 22:59 | 49.02469 | 2.53386 | 360 ft | 16 kts | 235° |
| 2026-05-06 22:59 | 49.02422 | 2.53277 | 356 ft | 10 kts | 237° |
| 2026-05-06 22:59 | 49.02380 | 2.53178 | 358 ft | 9 kts | 236° |
| 2026-05-06 22:59 | 49.02337 | 2.53097 | 358 ft | 11 kts | 230° |
| 2026-05-06 23:00 | 49.02286 | 2.53026 | 360 ft | 9 kts | 210° |
| 2026-05-06 23:00 | 49.02243 | 2.53006 | 358 ft | 6 kts | 183° |
| 2026-05-06 23:00 | 49.02206 | 2.53004 | 355 ft | 5 kts | 180° |
| 2026-05-06 23:00 | 49.02177 | 2.53005 | 355 ft | 3 kts | 178° |
| 2026-05-06 23:01 | 49.02127 | 2.53012 | 359 ft | 11 kts | 172° |
| 2026-05-06 23:01 | 49.02063 | 2.53025 | 361 ft | 8 kts | 173° |
| 2026-05-06 23:01 | 49.02011 | 2.53035 | 355 ft | 7 kts | 174° |
| 2026-05-06 23:01 | 49.01964 | 2.53038 | 359 ft | 6 kts | 178° |
| 2026-05-06 23:02 | 49.01927 | 2.53040 | 360 ft | 0 kts | 178° |
| 2026-05-06 23:02 | 49.01908 | 2.53041 | 355 ft | 8 kts | 178° |
| 2026-05-06 23:02 | 49.01857 | 2.53052 | 355 ft | 7 kts | 150° |
| 2026-05-06 23:02 | 49.01844 | 2.53120 | 356 ft | 9 kts | 90° |
| 2026-05-06 23:03 | 49.01847 | 2.53221 | 355 ft | 14 kts | 86° |
| 2026-05-06 23:03 | 49.01855 | 2.53376 | 355 ft | 15 kts | 84° |
| 2026-05-06 23:03 | 49.01870 | 2.53523 | 357 ft | 11 kts | 83° |
| 2026-05-06 23:03 | 49.01855 | 2.53567 | 358 ft | 8 kts | 144° |
| 2026-05-06 23:04 | 49.01789 | 2.53579 | 355 ft | 9 kts | 178° |
| 2026-05-06 23:04 | 49.01707 | 2.53586 | 355 ft | 14 kts | 176° |
| 2026-05-06 23:04 | 49.01605 | 2.53600 | 357 ft | 16 kts | 174° |
| 2026-05-06 23:04 | 49.01489 | 2.53616 | 355 ft | 17 kts | 178° |
| 2026-05-06 23:05 | 49.01364 | 2.53618 | 360 ft | 17 kts | 177° |
| 2026-05-06 23:05 | 49.01258 | 2.53677 | 358 ft | 17 kts | 152° |
| 2026-05-06 23:05 | 49.01183 | 2.53784 | 360 ft | 13 kts | 118° |
| 2026-05-06 23:05 | 49.01179 | 2.53918 | 358 ft | 12 kts | 86° |
| 2026-05-06 23:06 | 49.01185 | 2.54049 | 355 ft | 13 kts | 86° |
| 2026-05-06 23:06 | 49.01192 | 2.54220 | 336 ft | 19 kts | 86° |
| 2026-05-06 23:06 | 49.01197 | 2.54312 | 348 ft | 1 kts | 86° |
| 2026-05-06 23:06 | 49.01219 | 2.54347 | 352 ft | 7 kts | 23° |
| 2026-05-06 23:07 | 49.01275 | 2.54314 | 353 ft | 12 kts | 346° |
| 2026-05-06 23:07 | 49.01359 | 2.54337 | 355 ft | 12 kts | 20° |
| 2026-05-06 23:07 | 49.01426 | 2.54374 | 356 ft | 8 kts | 10° |
| 2026-05-06 23:07 | 49.01451 | 2.54418 | 354 ft | 5 kts | 88° |
| 2026-05-06 23:08 | 49.01451 | 2.54446 | 356 ft | 1 kts | 91° |
| 2026-05-06 23:08 | 49.01451 | 2.54463 | 354 ft | 2 kts | 91° |
| 2026-05-06 23:08 | 49.01449 | 2.54484 | 357 ft | 1 kts | 97° |
| 2026-05-06 23:08 | 49.01449 | 2.54487 | 357 ft | 0 kts | 96° |